Koru — WDJ6861 — position and weather

sailwx.info

Track history (hours):
 
Tides and Currents Weather Stations Pressure Air Temp Water Temp Dewpoint Dewpoint Depression Visibility Wind Speed Wind Dir Waves Ship Positions

Koru

Owner: Howasea Enterprises, LLC, Seattle, WA. More information available from US FCC via Universal Licensing System and Coast Guard Vessel Documentation Center.

Last reported at 2018-Jun-20 18:35 UTC. Time now 2018-Jun-24 10:50 UTC.
Position N 52°09' W 128°08'.

Length 24 m.

Type: Pleasure craft. MMSI: 368000940.

Date/timePositionNaut miles runAvg speedWind from/ knotsBaromVisibWave heightAir tempDewpointWater temp
2018-Jun-20 18:35N 52°09' W 128°08'1 9.5
2018-Jun-20 18:30N 52°08' W 128°08'6 9.2
2018-Jun-20 17:50N 52°02' W 128°10'4 9.0
2018-Jun-20 17:22N 51°58' W 128°12'5 0.2
2018-Jun-19 18:30N 51°53' W 128°16'5 9.9
2018-Jun-19 18:00N 51°48' W 128°17'5 9.8
2018-Jun-19 17:30N 51°44' W 128°13'5 8.8
2018-Jun-19 16:58N 51°41' W 128°07'  
2018-Jun-16 21:45N 51°39' W 128°04'2 9.6
2018-Jun-16 21:30N 51°39' W 128°01'4 8.2
2018-Jun-16 21:00N 51°37' W 127°55'4 8.8
2018-Jun-16 20:30N 51°34' W 127°51'4 8.5
2018-Jun-16 20:00N 51°31' W 127°46'4 0.1
2018-Jun-14 23:54N 51°27' W 127°45'20 7.2
2018-Jun-14 21:04N 51°07' W 127°44'2 9.5
2018-Jun-14 20:52N 51°05' W 127°42'3 9.0
2018-Jun-14 20:30N 51°03' W 127°39'4 8.8
2018-Jun-14 20:00N 50°60' W 127°34'4 8.5
2018-Jun-14 19:30N 50°57' W 127°29'4 7.8
2018-Jun-14 18:59N 50°55' W 127°24'4 8.4
2018-Jun-14 18:29N 50°52' W 127°18'87 3.5
2018-Jun-13 17:14N 50°22' W 125°09'3 9.8
2018-Jun-13 16:55N 50°19' W 125°06'510.1
2018-Jun-13 16:27N 50°16' W 125°01'4 9.7
2018-Jun-13 16:00N 50°12' W 124°57'4 7.8
2018-Jun-13 15:30N 50°11' W 124°51'17 0.4
2018-Jun-11 23:50N 49°55' W 124°41'  
Track history (hours):
 
Tides and Currents Weather Stations Pressure Air Temp Water Temp Dewpoint Dewpoint Depression Visibility Wind Speed Wind Dir Waves Ship Positions

Koru

Owner: Howasea Enterprises, LLC, Seattle, WA. More information available from US FCC via Universal Licensing System and Coast Guard Vessel Documentation Center.

Last reported at 2018-Jun-20 18:35 UTC. Time now 2018-Jun-24 10:50 UTC.
Position N 52°09' W 128°08'.

Length 24 m.

Type: Pleasure craft. MMSI: 368000940.

Date/timePositionNaut miles runAvg speedWind from/ knotsBaromVisibWave heightAir tempDewpointWater temp
2018-Jun-20 18:35N 52°09' W 128°08'1 9.5
2018-Jun-20 18:30N 52°08' W 128°08'6 9.2
2018-Jun-20 17:50N 52°02' W 128°10'4 9.0
2018-Jun-20 17:22N 51°58' W 128°12'5 0.2
2018-Jun-19 18:30N 51°53' W 128°16'5 9.9
2018-Jun-19 18:00N 51°48' W 128°17'5 9.8
2018-Jun-19 17:30N 51°44' W 128°13'5 8.8
2018-Jun-19 16:58N 51°41' W 128°07'  
2018-Jun-16 21:45N 51°39' W 128°04'2 9.6
2018-Jun-16 21:30N 51°39' W 128°01'4 8.2
2018-Jun-16 21:00N 51°37' W 127°55'4 8.8
2018-Jun-16 20:30N 51°34' W 127°51'4 8.5
2018-Jun-16 20:00N 51°31' W 127°46'4 0.1
2018-Jun-14 23:54N 51°27' W 127°45'20 7.2
2018-Jun-14 21:04N 51°07' W 127°44'2 9.5
2018-Jun-14 20:52N 51°05' W 127°42'3 9.0
2018-Jun-14 20:30N 51°03' W 127°39'4 8.8
2018-Jun-14 20:00N 50°60' W 127°34'4 8.5
2018-Jun-14 19:30N 50°57' W 127°29'4 7.8
2018-Jun-14 18:59N 50°55' W 127°24'4 8.4
2018-Jun-14 18:29N 50°52' W 127°18'87 3.5
2018-Jun-13 17:14N 50°22' W 125°09'3 9.8
2018-Jun-13 16:55N 50°19' W 125°06'510.1
2018-Jun-13 16:27N 50°16' W 125°01'4 9.7
2018-Jun-13 16:00N 50°12' W 124°57'4 7.8
2018-Jun-13 15:30N 50°11' W 124°51'17 0.4
2018-Jun-11 23:50N 49°55' W 124°41'  

Dump ship's entire track history